WJA4401 CYYJ-CYVR
Flight info
| Callsign | WJA4401 |
|---|---|
| Flight time | 0h 34m |
| Altitude | 9000 |
| Route | DCT BUICK DCT DUXUM DUXUM6 |
| Aircraft | B738/M-SDE2E3FGHIRWXY/LB1 |
Departure
| Time | 2026-05-08 00:50 |
|---|---|
| Airport | Victoria International Airport (CYYJ) |
Arrival
| Time | 2026-05-08 01:25 |
|---|---|
| Airport | Vancouver International Airport (CYVR) |
| Time | Latitude | Longitude | Altitude | Speed | Heading |
|---|---|---|---|---|---|
| 2026-05-08 00:32 | 48.64914 | -123.43533 | 61 ft | 0 kts | 360° |
| 2026-05-08 00:48 | 48.64941 | -123.43550 | 59 ft | 9 kts | 329° |
| 2026-05-08 00:48 | 48.65004 | -123.43647 | 60 ft | 16 kts | 276° |
| 2026-05-08 00:48 | 48.65035 | -123.43808 | 61 ft | 7 kts | 284° |
| 2026-05-08 00:49 | 48.65070 | -123.43869 | 61 ft | 9 kts | 328° |
| 2026-05-08 00:49 | 48.65131 | -123.43904 | 58 ft | 10 kts | 359° |
| 2026-05-08 00:49 | 48.65162 | -123.43890 | 55 ft | 0 kts | 37° |
| 2026-05-08 00:49 | 48.65163 | -123.43887 | 56 ft | 2 kts | 46° |
| 2026-05-08 00:50 | 48.65146 | -123.43745 | 54 ft | 49 kts | 104° |
| 2026-05-08 00:50 | 48.64961 | -123.42783 | 59 ft | 139 kts | 106° |
| 2026-05-08 00:50 | 48.64651 | -123.41043 | 378 ft | 189 kts | 98° |
| 2026-05-08 00:50 | 48.64804 | -123.39022 | 1582 ft | 201 kts | 70° |
| 2026-05-08 00:51 | 48.65574 | -123.37289 | 2649 ft | 191 kts | 39° |
| 2026-05-08 00:51 | 48.66630 | -123.36542 | 3992 ft | 150 kts | 4° |
| 2026-05-08 00:51 | 48.67548 | -123.36717 | 4817 ft | 127 kts | 340° |
| 2026-05-08 00:51 | 48.68495 | -123.36669 | 4853 ft | 163 kts | 31° |
| 2026-05-08 00:52 | 48.69318 | -123.35124 | 4629 ft | 216 kts | 61° |
| 2026-05-08 00:52 | 48.70124 | -123.33076 | 4969 ft | 232 kts | 55° |
| 2026-05-08 00:52 | 48.71047 | -123.31093 | 5739 ft | 228 kts | 53° |
| 2026-05-08 00:52 | 48.71987 | -123.29229 | 6689 ft | 216 kts | 52° |
| 2026-05-08 00:53 | 48.72906 | -123.27497 | 7506 ft | 208 kts | 52° |
| 2026-05-08 00:53 | 48.73830 | -123.25809 | 8139 ft | 210 kts | 51° |
| 2026-05-08 00:53 | 48.74794 | -123.24085 | 8600 ft | 220 kts | 51° |
| 2026-05-08 00:53 | 48.75824 | -123.22276 | 8981 ft | 235 kts | 50° |
| 2026-05-08 00:54 | 48.76976 | -123.20280 | 8992 ft | 268 kts | 50° |
| 2026-05-08 00:54 | 48.78270 | -123.18053 | 9020 ft | 289 kts | 50° |
| 2026-05-08 00:54 | 48.79595 | -123.15782 | 8991 ft | 292 kts | 49° |
| 2026-05-08 00:54 | 48.80990 | -123.13554 | 8973 ft | 292 kts | 41° |
| 2026-05-08 00:55 | 48.82657 | -123.11806 | 8998 ft | 292 kts | 30° |
| 2026-05-08 00:55 | 48.84444 | -123.10340 | 8993 ft | 292 kts | 29° |
| 2026-05-08 00:55 | 48.86232 | -123.08879 | 8985 ft | 292 kts | 29° |
| 2026-05-08 00:55 | 48.88015 | -123.07401 | 8989 ft | 292 kts | 29° |
| 2026-05-08 00:56 | 48.89796 | -123.05913 | 8990 ft | 292 kts | 30° |
| 2026-05-08 00:56 | 48.91576 | -123.04416 | 8988 ft | 292 kts | 30° |
| 2026-05-08 00:56 | 48.93353 | -123.02917 | 8973 ft | 290 kts | 30° |
| 2026-05-08 00:56 | 48.95139 | -123.01410 | 8755 ft | 297 kts | 30° |
| 2026-05-08 00:57 | 48.96954 | -122.99878 | 8496 ft | 298 kts | 30° |
| 2026-05-08 00:57 | 48.98732 | -122.98379 | 8241 ft | 294 kts | 30° |
| 2026-05-08 00:57 | 49.00487 | -122.96819 | 7970 ft | 290 kts | 35° |
| 2026-05-08 00:57 | 49.02117 | -122.95034 | 7736 ft | 286 kts | 38° |
| 2026-05-08 00:58 | 49.03706 | -122.93220 | 7487 ft | 284 kts | 38° |
| 2026-05-08 00:58 | 49.05258 | -122.91437 | 7294 ft | 274 kts | 38° |
| 2026-05-08 00:58 | 49.06761 | -122.89709 | 7072 ft | 269 kts | 38° |
| 2026-05-08 00:58 | 49.08240 | -122.88006 | 6774 ft | 264 kts | 38° |
| 2026-05-08 00:59 | 49.09693 | -122.86335 | 6558 ft | 259 kts | 38° |
| 2026-05-08 00:59 | 49.11133 | -122.84674 | 6308 ft | 260 kts | 38° |
| 2026-05-08 00:59 | 49.12568 | -122.83019 | 6089 ft | 257 kts | 38° |
| 2026-05-08 00:59 | 49.13980 | -122.81396 | 5872 ft | 258 kts | 37° |
| 2026-05-08 01:00 | 49.15600 | -122.80216 | 5509 ft | 262 kts | 10° |
| 2026-05-08 01:00 | 49.17360 | -122.80402 | 5373 ft | 248 kts | 340° |
| 2026-05-08 01:00 | 49.18721 | -122.81825 | 5256 ft | 232 kts | 310° |
| 2026-05-08 01:00 | 49.19666 | -122.83699 | 5202 ft | 215 kts | 306° |
| 2026-05-08 01:01 | 49.20429 | -122.85569 | 5063 ft | 202 kts | 289° |
| 2026-05-08 01:01 | 49.20457 | -122.87601 | 4950 ft | 187 kts | 252° |
| 2026-05-08 01:01 | 49.19978 | -122.89409 | 4672 ft | 183 kts | 246° |
| 2026-05-08 01:01 | 49.19454 | -122.91186 | 4330 ft | 183 kts | 245° |
| 2026-05-08 01:02 | 49.18929 | -122.92945 | 4057 ft | 180 kts | 245° |
| 2026-05-08 01:02 | 49.18400 | -122.94715 | 4032 ft | 184 kts | 245° |
| 2026-05-08 01:02 | 49.17934 | -122.96492 | 3968 ft | 182 kts | 261° |
| 2026-05-08 01:02 | 49.18096 | -122.98355 | 4030 ft | 178 kts | 284° |
| 2026-05-08 01:03 | 49.18311 | -123.00244 | 3995 ft | 180 kts | 278° |
| 2026-05-08 01:03 | 49.18500 | -123.02134 | 3824 ft | 186 kts | 279° |
| 2026-05-08 01:03 | 49.18719 | -123.04121 | 3321 ft | 185 kts | 279° |
| 2026-05-08 01:03 | 49.18937 | -123.06069 | 2819 ft | 182 kts | 278° |
| 2026-05-08 01:04 | 49.19149 | -123.07954 | 2328 ft | 179 kts | 278° |
| 2026-05-08 01:04 | 49.19275 | -123.09214 | 1978 ft | 175 kts | 278° |
| 2026-05-08 01:04 | 49.19507 | -123.11057 | 1306 ft | 179 kts | 278° |
| 2026-05-08 01:04 | 49.19724 | -123.12959 | 807 ft | 174 kts | 281° |
| 2026-05-08 01:05 | 49.19925 | -123.14785 | 386 ft | 174 kts | 276° |
| 2026-05-08 01:05 | 49.20119 | -123.16634 | 82 ft | 168 kts | 279° |
| 2026-05-08 01:05 | 49.20264 | -123.18244 | 33 ft | 120 kts | 265° |
| 2026-05-08 01:05 | 49.20169 | -123.19521 | 157 ft | 136 kts | 264° |
| 2026-05-08 01:06 | 49.20066 | -123.21177 | 594 ft | 168 kts | 264° |
| 2026-05-08 01:06 | 49.20086 | -123.23054 | 1452 ft | 180 kts | 275° |
| 2026-05-08 01:06 | 49.20318 | -123.25013 | 2290 ft | 193 kts | 284° |
| 2026-05-08 01:06 | 49.20813 | -123.26964 | 3128 ft | 200 kts | 292° |
| 2026-05-08 01:07 | 49.21434 | -123.28813 | 4130 ft | 192 kts | 303° |
| 2026-05-08 01:07 | 49.22283 | -123.30345 | 5112 ft | 193 kts | 321° |
| 2026-05-08 01:07 | 49.23590 | -123.31299 | 5337 ft | 223 kts | 343° |
| 2026-05-08 01:07 | 49.25181 | -123.31636 | 5653 ft | 240 kts | 2° |
| 2026-05-08 01:08 | 49.26859 | -123.30985 | 5661 ft | 264 kts | 27° |
| 2026-05-08 01:08 | 49.28201 | -123.28973 | 5502 ft | 283 kts | 61° |
| 2026-05-08 01:08 | 49.28485 | -123.27956 | 5452 ft | 288 kts | 73° |
| 2026-05-08 01:09 | 49.28564 | -123.25088 | 5330 ft | 298 kts | 102° |
| 2026-05-08 01:09 | 49.27594 | -123.22243 | 5215 ft | 304 kts | 132° |
| 2026-05-08 01:09 | 49.25811 | -123.20534 | 5098 ft | 308 kts | 162° |
| 2026-05-08 01:10 | 49.23684 | -123.20293 | 5014 ft | 309 kts | 184° |
| 2026-05-08 01:10 | 49.21560 | -123.20739 | 4958 ft | 308 kts | 189° |
| 2026-05-08 01:10 | 49.19488 | -123.21357 | 4843 ft | 294 kts | 196° |
| 2026-05-08 01:10 | 49.17864 | -123.22890 | 4719 ft | 260 kts | 230° |
| 2026-05-08 01:11 | 49.17163 | -123.25304 | 4393 ft | 243 kts | 265° |
| 2026-05-08 01:11 | 49.17550 | -123.27719 | 4069 ft | 244 kts | 305° |
| 2026-05-08 01:11 | 49.18902 | -123.29302 | 3987 ft | 247 kts | 343° |
| 2026-05-08 01:11 | 49.20554 | -123.29310 | 3986 ft | 243 kts | 20° |
| 2026-05-08 01:12 | 49.22056 | -123.28063 | 4020 ft | 243 kts | 26° |
| 2026-05-08 01:12 | 49.23632 | -123.27298 | 4226 ft | 242 kts | 14° |
| 2026-05-08 01:12 | 49.25280 | -123.26634 | 4419 ft | 246 kts | 15° |
| 2026-05-08 01:12 | 49.26924 | -123.25948 | 4610 ft | 244 kts | 15° |
| 2026-05-08 01:13 | 49.28556 | -123.25260 | 4833 ft | 244 kts | 15° |
| 2026-05-08 01:13 | 49.30163 | -123.24471 | 4948 ft | 243 kts | 28° |
| 2026-05-08 01:13 | 49.31409 | -123.22730 | 4984 ft | 247 kts | 58° |
| 2026-05-08 01:13 | 49.31913 | -123.20235 | 4984 ft | 248 kts | 88° |
| 2026-05-08 01:14 | 49.31833 | -123.17608 | 4989 ft | 247 kts | 94° |
| 2026-05-08 01:14 | 49.31676 | -123.14981 | 4985 ft | 248 kts | 95° |
| 2026-05-08 01:14 | 49.31503 | -123.12363 | 4982 ft | 248 kts | 98° |
| 2026-05-08 01:14 | 49.31022 | -123.09869 | 4985 ft | 246 kts | 119° |
| 2026-05-08 01:15 | 49.30198 | -123.07600 | 4981 ft | 243 kts | 109° |
| 2026-05-08 01:15 | 49.29747 | -123.05089 | 4985 ft | 241 kts | 105° |
| 2026-05-08 01:15 | 49.29304 | -123.02609 | 4975 ft | 242 kts | 105° |
| 2026-05-08 01:15 | 49.28848 | -123.00092 | 4975 ft | 243 kts | 105° |
| 2026-05-08 01:16 | 49.28394 | -122.97596 | 4973 ft | 244 kts | 105° |
| 2026-05-08 01:16 | 49.27938 | -122.95088 | 4974 ft | 245 kts | 105° |
| 2026-05-08 01:16 | 49.27481 | -122.92570 | 4974 ft | 246 kts | 105° |
| 2026-05-08 01:16 | 49.27030 | -122.90082 | 4969 ft | 236 kts | 105° |
| 2026-05-08 01:17 | 49.26597 | -122.87696 | 4972 ft | 236 kts | 105° |
| 2026-05-08 01:17 | 49.26146 | -122.85209 | 4986 ft | 246 kts | 105° |
| 2026-05-08 01:17 | 49.25691 | -122.82702 | 4984 ft | 247 kts | 105° |
| 2026-05-08 01:17 | 49.25233 | -122.80173 | 4972 ft | 246 kts | 105° |
| 2026-05-08 01:18 | 49.24766 | -122.77655 | 4977 ft | 246 kts | 109° |
| 2026-05-08 01:18 | 49.23854 | -122.75474 | 4973 ft | 246 kts | 139° |
| 2026-05-08 01:18 | 49.22362 | -122.74325 | 4972 ft | 238 kts | 170° |
| 2026-05-08 01:18 | 49.20756 | -122.74304 | 4984 ft | 228 kts | 185° |
| 2026-05-08 01:19 | 49.19279 | -122.75042 | 4974 ft | 224 kts | 215° |
| 2026-05-08 01:19 | 49.18302 | -122.76811 | 4817 ft | 220 kts | 242° |
| 2026-05-08 01:19 | 49.17623 | -122.78924 | 4373 ft | 221 kts | 245° |
| 2026-05-08 01:19 | 49.16973 | -122.81054 | 3950 ft | 221 kts | 245° |
| 2026-05-08 01:20 | 49.16399 | -122.83237 | 3523 ft | 223 kts | 259° |
| 2026-05-08 01:20 | 49.16569 | -122.85557 | 3139 ft | 219 kts | 287° |
| 2026-05-08 01:20 | 49.16911 | -122.87727 | 2999 ft | 199 kts | 279° |
| 2026-05-08 01:20 | 49.17124 | -122.89681 | 2972 ft | 175 kts | 278° |
| 2026-05-08 01:21 | 49.17310 | -122.91413 | 2957 ft | 159 kts | 279° |
| 2026-05-08 01:21 | 49.17488 | -122.93037 | 2968 ft | 157 kts | 279° |
| 2026-05-08 01:21 | 49.17672 | -122.94706 | 2816 ft | 161 kts | 278° |
| 2026-05-08 01:21 | 49.17858 | -122.96386 | 2601 ft | 159 kts | 278° |
| 2026-05-08 01:22 | 49.18041 | -122.98032 | 2419 ft | 153 kts | 278° |
| 2026-05-08 01:22 | 49.18219 | -122.99636 | 2196 ft | 152 kts | 278° |
| 2026-05-08 01:22 | 49.18398 | -123.01236 | 1990 ft | 153 kts | 276° |
| 2026-05-08 01:22 | 49.18576 | -123.02834 | 1775 ft | 153 kts | 277° |
| 2026-05-08 01:23 | 49.18753 | -123.04425 | 1552 ft | 150 kts | 277° |
| 2026-05-08 01:23 | 49.18931 | -123.05993 | 1380 ft | 152 kts | 277° |
| 2026-05-08 01:23 | 49.19107 | -123.07604 | 1134 ft | 153 kts | 277° |
| 2026-05-08 01:23 | 49.19286 | -123.09175 | 938 ft | 147 kts | 277° |
| 2026-05-08 01:24 | 49.19467 | -123.10711 | 766 ft | 147 kts | 278° |
| 2026-05-08 01:24 | 49.19647 | -123.12248 | 601 ft | 148 kts | 279° |
| 2026-05-08 01:24 | 49.19821 | -123.13845 | 418 ft | 152 kts | 278° |
| 2026-05-08 01:24 | 49.19999 | -123.15419 | 217 ft | 149 kts | 278° |
| 2026-05-08 01:25 | 49.20158 | -123.16944 | 33 ft | 142 kts | 278° |
| 2026-05-08 01:25 | 49.20302 | -123.18276 | 23 ft | 93 kts | 268° |
| 2026-05-08 01:25 | 49.20198 | -123.18866 | 24 ft | 19 kts | 224° |
| 2026-05-08 01:25 | 49.20171 | -123.18864 | 22 ft | 4 kts | 143° |
| 2026-05-08 01:26 | 49.20152 | -123.18772 | 22 ft | 15 kts | 98° |
| 2026-05-08 01:26 | 49.20129 | -123.18576 | 25 ft | 3 kts | 100° |
| 2026-05-08 01:26 | 49.20123 | -123.18524 | 22 ft | 6 kts | 100° |
| 2026-05-08 01:26 | 49.20115 | -123.18456 | 23 ft | 7 kts | 99° |
| 2026-05-08 01:27 | 49.20106 | -123.18370 | 22 ft | 12 kts | 99° |
| 2026-05-08 01:27 | 49.20090 | -123.18232 | 22 ft | 13 kts | 101° |
| 2026-05-08 01:27 | 49.20072 | -123.18096 | 24 ft | 13 kts | 101° |
| 2026-05-08 01:27 | 49.20059 | -123.17964 | 22 ft | 12 kts | 97° |
| 2026-05-08 01:28 | 49.20025 | -123.17852 | 22 ft | 12 kts | 154° |
| 2026-05-08 01:28 | 49.19957 | -123.17857 | 22 ft | 2 kts | 229° |
| 2026-05-08 01:28 | 49.19938 | -123.17900 | 23 ft | 6 kts | 230° |
| 2026-05-08 01:28 | 49.19924 | -123.17913 | 24 ft | 3 kts | 210° |
| 2026-05-08 01:29 | 49.19915 | -123.17920 | 22 ft | 1 kts | 204° |
| 2026-05-08 01:29 | 49.19901 | -123.17929 | 22 ft | 0 kts | 202° |